Time;durP1;ratioP1;P1;durP2;ratioP2;P2;SDS_P1;SDS_P2;PMS_P1;PMS_P2;Temp;Humidity;BMP_temperature;BMP_pressure;BME280_temperature;BME280_humidity;BME280_pressure;Samples;Min_cycle;Max_cycle;Signal;HPM_P1;HPM_P2
2022/05/07 00:01:35;;;;;;;15.13;11.88;;;;;;;10.70;100.00;100844.88;5219690;23;20141;-72
2022/05/07 00:04:01;;;;;;;19.20;12.25;;;;;;;10.40;100.00;100839.38;4643993;28;9999625;-75
2022/05/07 00:06:26;;;;;;;17.95;11.90;;;;;;;10.25;100.00;100843.81;4992527;28;20027;-76
2022/05/07 00:08:51;;;;;;;14.75;12.20;;;;;;;9.59;100.00;100726.94;4992401;28;20026;-74
2022/05/07 00:11:20;;;;;;;14.60;11.65;;;;;;;10.06;100.00;100827.91;4992073;28;20030;-75
2022/05/07 00:13:47;;;;;;;13.15;11.30;;;;;;;9.35;100.00;100764.41;4991927;28;20037;-75
2022/05/07 00:18:56;;;;;;;15.05;12.13;;;;;;;9.68;100.00;100832.63;4992692;28;20128;-74
2022/05/07 00:21:22;;;;;;;17.30;12.10;;;;;;;9.29;100.00;100764.50;4990818;28;20473;-74
2022/05/07 00:23:47;;;;;;;17.15;12.13;;;;;;;9.68;100.00;100840.22;4991703;28;20041;-75
2022/05/07 00:26:12;;;;;;;16.42;12.88;;;;;;;9.83;100.00;100829.06;4991629;28;20030;-75
2022/05/07 00:28:38;;;;;;;19.52;13.10;;;;;;;9.85;100.00;100828.19;4992500;28;20476;-75
2022/05/07 00:31:03;;;;;;;18.08;12.13;;;;;;;9.31;100.00;100766.16;4992594;28;20114;-75
2022/05/07 00:33:29;;;;;;;22.15;12.90;;;;;;;9.67;100.00;100819.91;4992104;28;20030;-75
2022/05/07 00:35:54;;;;;;;21.02;12.77;;;;;;;9.11;100.00;100773.09;4992376;28;20550;-74
2022/05/07 00:38:19;;;;;;;16.83;12.60;;;;;;;9.28;100.00;100771.28;4991239;28;20027;-74
2022/05/07 00:40:45;;;;;;;16.27;13.13;;;;;;;8.70;100.00;100671.25;4991588;28;20031;-76
2022/05/07 00:43:15;;;;;;;17.15;12.80;;;;;;;9.57;100.00;100814.94;4992703;28;20478;-76
2022/05/07 00:45:42;;;;;;;18.38;13.20;;;;;;;9.81;100.00;100830.75;4992739;28;20037;-76
2022/05/07 00:48:08;;;;;;;19.40;14.10;;;;;;;9.85;100.00;100818.03;4992853;28;20034;-76
2022/05/07 00:53:17;;;;;;;17.77;13.30;;;;;;;9.86;100.00;100812.09;4992211;28;20057;-75
2022/05/07 00:55:44;;;;;;;17.42;13.25;;;;;;;9.41;100.00;100754.19;4990402;28;20350;-75
2022/05/07 00:58:09;;;;;;;20.33;14.35;;;;;;;9.67;100.00;100803.00;4992587;28;20033;-75
2022/05/07 01:00:35;;;;;;;16.42;12.52;;;;;;;10.23;100.00;100815.91;4992175;28;20034;-74
2022/05/07 01:03:01;;;;;;;17.90;13.07;;;;;;;9.90;100.00;100810.34;5002661;28;20116;-74
2022/05/07 01:05:28;;;;;;;17.25;12.85;;;;;;;9.49;100.00;100757.50;5010722;28;20061;-74
2022/05/07 01:07:54;;;;;;;17.80;12.85;;;;;;;9.80;100.00;100802.00;5011479;28;20556;-73
2022/05/07 01:10:21;;;;;;;19.73;12.70;;;;;;;9.79;100.00;100785.09;5007229;28;20047;-75
2022/05/07 01:12:47;;;;;;;16.38;13.50;;;;;;;10.09;100.00;100794.88;5014748;28;20187;-74
2022/05/07 01:15:12;;;;;;;17.58;13.85;;;;;;;9.20;100.00;100727.38;5014939;28;20092;-74
2022/05/07 01:17:38;;;;;;;17.05;13.77;;;;;;;9.44;100.00;100787.19;5014055;28;20544;-77
2022/05/07 01:20:08;;;;;;;20.08;13.30;;;;;;;9.61;100.00;100792.91;5014478;28;20551;-75
2022/05/07 01:22:34;;;;;;;15.55;12.68;;;;;;;10.08;100.00;100788.09;5015011;28;20041;-75
2022/05/07 01:25:01;;;;;;;20.67;13.05;;;;;;;10.05;100.00;100785.59;5015222;28;20030;-75
2022/05/07 01:27:27;;;;;;;16.95;14.02;;;;;;;9.58;100.00;100739.66;5015418;28;20037;-75
2022/05/07 01:29:52;;;;;;;17.42;13.23;;;;;;;9.27;100.00;100749.28;5014380;28;20022;-75
2022/05/07 01:32:18;;;;;;;16.20;13.70;;;;;;;9.16;100.00;100713.03;5005488;28;20034;-76
2022/05/07 01:34:43;;;;;;;16.58;13.80;;;;;;;9.12;100.00;100776.50;4997878;28;20030;-75
2022/05/07 01:37:09;;;;;;;15.93;12.73;;;;;;;9.51;100.00;100779.47;4995359;28;20030;-75
2022/05/07 01:39:34;;;;;;;16.08;13.35;;;;;;;9.19;100.00;100715.53;4995574;28;20116;-75
2022/05/07 01:42:00;;;;;;;19.95;13.10;;;;;;;9.79;100.00;100769.00;4995565;28;20030;-78
2022/05/07 01:44:26;;;;;;;18.27;12.52;;;;;;;9.08;100.00;100701.28;4995315;28;20022;-78
2022/05/07 01:49:35;;;;;;;17.92;13.70;;;;;;;9.09;100.00;100713.94;4995285;28;20041;-76
2022/05/07 01:52:01;;;;;;;19.42;13.90;;;;;;;9.24;100.00;100751.00;5002379;28;20038;-76
2022/05/07 01:54:26;;;;;;;18.60;13.25;;;;;;;9.73;100.00;100761.44;5015122;28;20088;-76
2022/05/07 01:56:52;;;;;;;18.25;13.10;;;;;;;9.85;100.00;100746.91;5014640;28;20018;-76
2022/05/07 01:59:17;;;;;;;16.25;13.77;;;;;;;9.37;100.00;100748.31;5014820;28;20034;-76
2022/05/07 02:01:42;;;;;;;16.13;12.85;;;;;;;9.66;100.00;100758.16;5016175;28;20026;-75
2022/05/07 02:04:08;;;;;;;18.73;14.00;;;;;;;9.08;100.00;100704.66;5034159;28;20415;-75
2022/05/07 02:06:33;;;;;;;16.80;13.15;;;;;;;9.03;100.00;100687.81;5034076;28;20029;-75
2022/05/07 02:08:59;;;;;;;18.58;14.13;;;;;;;9.10;100.00;100704.66;5016449;28;20037;-74
2022/05/07 02:11:24;;;;;;;18.52;14.40;;;;;;;9.50;100.00;100754.13;5033988;28;20525;-74
2022/05/07 02:13:50;;;;;;;16.83;13.25;;;;;;;9.10;100.00;100692.81;5033496;28;20095;-72
2022/05/07 02:16:15;;;;;;;17.25;13.93;;;;;;;9.16;100.00;100758.72;5015933;28;20044;-74
2022/05/07 02:18:40;;;;;;;16.08;12.82;;;;;;;9.57;100.00;100754.03;5033171;28;20099;-73
2022/05/07 02:21:06;;;;;;;17.98;13.88;;;;;;;8.95;100.00;100639.75;5033026;28;20026;-73
2022/05/07 02:23:31;;;;;;;17.63;13.40;;;;;;;9.08;100.00;100691.16;5033397;28;20030;-73
2022/05/07 02:25:57;;;;;;;17.20;14.00;;;;;;;9.05;100.00;100712.28;5033730;28;20467;-74
2022/05/07 02:28:22;;;;;;;16.20;13.10;;;;;;;9.02;100.00;100698.81;5015687;28;20281;-74
2022/05/07 02:30:48;;;;;;;18.38;13.77;;;;;;;9.11;100.00;100708.88;5033796;28;20033;-74
2022/05/07 02:33:13;;;;;;;19.08;13.85;;;;;;;9.08;100.00;100706.38;5032793;28;20124;-74
2022/05/07 02:35:39;;;;;;;19.17;14.75;;;;;;;8.41;100.00;100668.13;5033499;28;20029;-74
2022/05/07 02:38:04;;;;;;;18.52;15.40;;;;;;;9.07;100.00;100751.16;5033349;28;20064;-75
2022/05/07 02:40:30;;;;;;;21.23;15.93;;;;;;;8.07;100.00;100670.03;5015626;28;20495;-75
2022/05/07 02:42:55;;;;;;;18.75;14.50;;;;;;;8.67;100.00;100772.66;5033103;28;20029;-73
2022/05/07 02:45:21;;;;;;;23.35;15.90;;;;;;;8.25;100.00;100719.75;5032927;28;20037;-75
2022/05/07 02:47:46;;;;;;;21.02;15.02;;;;;;;8.54;100.00;100700.94;5033045;28;20523;-73
2022/05/07 02:50:12;;;;;;;18.55;14.75;;;;;;;8.54;100.00;100773.59;5033283;28;20171;-75
2022/05/07 02:52:38;;;;;;;19.67;14.63;;;;;;;8.32;100.00;100757.69;5033016;28;20075;-75
2022/05/07 02:55:06;;;;;;;18.25;14.38;;;;;;;7.84;100.00;100720.78;5033229;28;20472;-75
2022/05/07 02:57:31;;;;;;;16.02;13.73;;;;;;;8.19;100.00;100696.97;5033143;28;20031;-75
2022/05/07 02:59:57;;;;;;;27.27;14.40;;;;;;;8.08;100.00;100740.06;5033490;28;20441;-76
2022/05/07 03:02:23;;;;;;;20.15;14.75;;;;;;;7.60;100.00;100694.78;5033365;28;20107;-74
2022/05/07 03:04:49;;;;;;;16.27;14.10;;;;;;;8.25;100.00;100771.25;5033459;28;20032;-76
2022/05/07 03:07:15;;;;;;;18.25;14.15;;;;;;;8.44;100.00;100762.66;5033467;28;20037;-76
2022/05/07 03:09:41;;;;;;;18.65;14.77;;;;;;;8.66;100.00;100759.13;5033000;28;20033;-76
2022/05/07 03:12:06;;;;;;;18.08;14.57;;;;;;;7.85;100.00;100772.25;5032823;28;20438;-76
2022/05/07 03:14:32;;;;;;;18.80;14.15;;;;;;;7.76;100.00;100714.09;5032744;28;20072;-77
2022/05/07 03:16:58;;;;;;;16.10;13.18;;;;;;;8.21;100.00;100768.69;5031987;28;20036;-78
2022/05/07 03:19:24;;;;;;;21.13;16.17;;;;;;;8.05;100.00;100770.47;5016118;28;20099;-77
2022/05/07 03:21:50;;;;;;;24.95;15.77;;;;;;;7.43;100.00;100712.53;5015845;28;20033;-76
2022/05/07 03:24:15;;;;;;;19.48;15.52;;;;;;;7.35;100.00;100718.47;5033060;28;20450;-76
2022/05/07 03:26:41;;;;;;;21.40;15.20;;;;;;;7.36;100.00;100675.47;5032094;28;20029;-76
2022/05/07 03:29:06;;;;;;;18.50;13.93;;;;;;;7.63;100.00;100723.41;5015222;28;20033;-75
2022/05/07 03:31:32;;;;;;;20.00;15.10;;;;;;;7.75;100.00;100780.72;5032338;28;20083;-76
2022/05/07 03:33:57;;;;;;;19.35;15.20;;;;;;;7.74;100.00;100763.88;5031584;28;20029;-76
2022/05/07 03:36:23;;;;;;;18.67;16.17;;;;;;;8.06;100.00;100768.78;5015121;28;20518;-75
2022/05/07 03:38:48;;;;;;;18.98;15.77;;;;;;;7.21;100.00;100703.31;5032359;28;20494;-76
2022/05/07 03:41:19;;;;;;;20.10;15.90;;;;;;;7.42;100.00;100750.47;5032426;28;20041;-76
2022/05/07 03:43:45;;;;;;;19.42;15.75;;;;;;;7.46;100.00;100772.41;5032999;28;20029;-75
2022/05/07 03:46:10;;;;;;;20.88;16.40;;;;;;;6.85;100.00;100673.09;5033444;28;20037;-74
2022/05/07 03:48:36;;;;;;;20.80;16.15;;;;;;;7.83;100.00;100756.22;5033473;28;20033;-72
2022/05/07 03:51:01;;;;;;;19.45;16.45;;;;;;;7.57;100.00;100766.47;5032942;28;20029;-75
2022/05/07 03:53:30;;;;;;;21.40;15.85;;;;;;;7.96;100.00;100778.13;5032749;28;20091;-75
2022/05/07 03:56:05;;;;;;;17.27;14.82;;;;;;;8.01;100.00;100785.69;5032128;28;20120;-75
2022/05/07 03:58:31;;;;;;;21.42;15.80;;;;;;;8.07;100.00;100790.72;5014642;28;20087;-74
2022/05/07 04:00:58;;;;;;;21.98;15.23;;;;;;;7.52;100.00;100792.63;5014520;28;20025;-75
2022/05/07 04:03:23;;;;;;;19.45;16.05;;;;;;;7.52;100.00;100788.41;5031532;28;20053;-74
2022/05/07 04:05:49;;;;;;;19.45;14.95;;;;;;;7.79;100.00;100800.97;5031666;28;20410;-75
2022/05/07 04:08:15;;;;;;;21.65;15.73;;;;;;;7.27;100.00;100731.13;5032109;28;20187;-74
2022/05/07 04:10:42;;;;;;;22.25;15.55;;;;;;;7.88;100.00;100800.91;5031622;28;20033;-74
2022/05/07 04:13:08;;;;;;;19.02;15.43;;;;;;;8.00;100.00;100731.69;5031869;28;20029;-75
2022/05/07 04:15:33;;;;;;;19.25;15.27;;;;;;;7.92;100.00;100773.94;5032021;28;20459;-76
2022/05/07 04:17:59;;;;;;;19.08;15.05;;;;;;;8.47;100.00;100813.34;5032152;28;20051;-76
2022/05/07 04:20:25;;;;;;;15.15;13.55;;;;;;;8.12;100.00;100746.78;5031792;28;20059;-76
2022/05/07 04:22:50;;;;;;;19.95;15.07;;;;;;;8.88;100.00;100796.97;5031792;28;20033;-76
2022/05/07 04:25:16;;;;;;;17.65;14.05;;;;;;;8.56;100.00;100810.75;5031548;28;20034;-75
2022/05/07 04:27:41;;;;;;;18.83;15.60;;;;;;;8.62;100.00;100809.84;5031703;28;20056;-75
2022/05/07 04:30:07;;;;;;;20.90;14.93;;;;;;;8.63;100.00;100811.56;5031786;28;20033;-75
2022/05/07 04:32:32;;;;;;;20.13;15.85;;;;;;;8.23;100.00;100749.28;5013441;28;20112;-76
2022/05/07 04:34:58;;;;;;;19.20;15.20;;;;;;;8.98;100.00;100806.19;5031844;28;20063;-73
2022/05/07 04:37:25;;;;;;;19.83;15.23;;;;;;;9.13;100.00;100823.84;5031458;28;20083;-75
2022/05/07 04:39:51;;;;;;;17.25;15.00;;;;;;;9.30;100.00;100819.47;5031478;28;20488;-75
2022/05/07 04:42:16;;;;;;;20.95;15.57;;;;;;;9.32;100.00;100745.00;5031531;28;20041;-74
2022/05/07 04:44:42;;;;;;;20.38;15.52;;;;;;;9.69;100.00;100793.66;5032761;28;20030;-75
2022/05/07 04:47:07;;;;;;;18.85;14.55;;;;;;;10.13;100.00;100810.94;5035402;28;20028;-75
2022/05/07 04:49:33;;;;;;;17.38;15.05;;;;;;;10.23;100.00;100765.06;5035310;28;20029;-75
2022/05/07 04:51:59;;;;;;;17.73;14.75;;;;;;;10.28;100.00;100776.00;5035411;28;20629;-76
2022/05/07 04:54:25;;;;;;;24.05;14.82;;;;;;;10.90;100.00;100835.25;5017650;28;20056;-74
2022/05/07 04:56:53;;;;;;;17.23;13.98;;;;;;;10.44;100.00;100774.06;5035646;28;20029;-76
2022/05/07 04:59:19;;;;;;;16.95;13.38;;;;;;;11.38;100.00;100831.91;5035390;28;20037;-76
2022/05/07 05:01:45;;;;;;;21.75;14.85;;;;;;;11.00;100.00;100836.78;5035077;28;20029;-76
2022/05/07 05:04:11;;;;;;;20.70;15.00;;;;;;;10.57;100.00;100746.78;5034969;28;20064;-75
2022/05/07 05:06:37;;;;;;;20.40;14.90;;;;;;;11.32;100.00;100773.47;5034609;28;20046;-75
2022/05/07 05:09:07;;;;;;;14.90;13.35;;;;;;;12.15;100.00;100846.59;5017580;28;20029;-76
2022/05/07 05:11:34;;;;;;;16.23;11.90;;;;;;;11.49;100.00;100791.00;5035245;28;20036;-75
2022/05/07 05:13:59;;;;;;;18.45;11.95;;;;;;;11.67;100.00;100846.69;5014799;28;20040;-76
2022/05/07 05:16:25;;;;;;;13.80;11.52;;;;;;;11.32;100.00;100819.28;5034102;28;20037;-75
2022/05/07 05:18:51;;;;;;;13.20;10.88;;;;;;;12.03;100.00;100856.19;5034911;28;20029;-76
2022/05/07 05:21:17;;;;;;;16.77;11.27;;;;;;;12.01;100.00;100863.03;5035406;28;20036;-76
2022/05/07 05:23:46;;;;;;;12.25;10.23;;;;;;;12.11;100.00;100816.94;5034675;28;20030;-76
2022/05/07 05:26:12;;;;;;;17.45;10.45;;;;;;;12.33;100.00;100881.06;5034764;28;20483;-74
2022/05/07 05:28:39;;;;;;;14.18;11.18;;;;;;;12.37;100.00;100886.94;5034888;28;20104;-77
2022/05/07 05:31:05;;;;;;;14.50;10.68;;;;;;;13.02;100.00;100887.19;5035032;28;20557;-76
2022/05/07 05:33:31;;;;;;;14.60;11.05;;;;;;;12.71;100.00;100780.75;5007727;28;20041;-75
2022/05/07 05:35:56;;;;;;;14.30;10.88;;;;;;;13.01;100.00;100843.81;5030200;28;20029;-74
2022/05/07 05:38:22;;;;;;;14.20;10.82;;;;;;;13.51;100.00;100883.47;5030722;28;20030;-76
2022/05/07 05:40:47;;;;;;;13.40;10.90;;;;;;;12.98;100.00;100851.53;5031962;28;20510;-71
2022/05/07 05:43:12;;;;;;;13.00;10.65;;;;;;;13.42;100.00;100836.00;5033795;28;20029;-70
2022/05/07 05:45:38;;;;;;;13.73;10.77;;;;;;;13.40;100.00;100875.22;5015782;28;20021;-71
2022/05/07 05:48:04;;;;;;;12.98;10.40;;;;;;;14.11;100.00;100833.25;5031962;28;20112;-71
2022/05/07 05:50:30;;;;;;;13.25;10.50;;;;;;;13.81;100.00;100839.22;5033137;28;20030;-70
2022/05/07 05:52:57;;;;;;;12.80;10.48;;;;;;;14.52;100.00;100847.41;5014793;28;20034;-70
2022/05/07 05:55:22;;;;;;;12.25;9.40;;;;;;;14.00;100.00;100831.88;5016791;28;20484;-70
2022/05/07 05:57:49;;;;;;;13.95;10.25;;;;;;;14.64;100.00;100893.94;5013211;28;20040;-72
2022/05/07 06:00:16;;;;;;;11.55;9.85;;;;;;;14.23;100.00;100870.41;4996297;28;20044;-72
2022/05/07 06:02:44;;;;;;;10.77;9.50;;;;;;;15.28;100.00;100876.56;4996325;28;20103;-74
2022/05/07 06:05:10;;;;;;;12.68;9.88;;;;;;;14.72;100.00;100842.50;4997141;28;20040;-74
2022/05/07 06:07:36;;;;;;;12.50;9.65;;;;;;;15.81;100.00;100892.72;4996967;28;20037;-73
2022/05/07 06:10:02;;;;;;;9.05;8.05;;;;;;;15.99;100.00;100892.94;5014247;28;20518;-71
2022/05/07 06:12:27;;;;;;;12.27;7.95;;;;;;;15.49;100.00;100861.34;5027972;28;20514;-74
2022/05/07 06:14:54;;;;;;;10.35;8.30;;;;;;;15.28;100.00;100838.97;5033189;28;20029;-74
2022/05/07 06:17:20;;;;;;;12.88;8.70;;;;;;;15.82;100.00;100873.91;5031464;28;20021;-72
2022/05/07 06:19:45;;;;;;;10.88;8.07;;;;;;;15.65;100.00;100805.25;5032064;28;20044;-72
2022/05/07 06:22:11;;;;;;;12.73;7.32;;;;;;;15.76;100.00;100851.03;5032771;28;20104;-71
2022/05/07 06:27:31;;;;;;;11.18;7.25;;;;;;;15.51;100.00;100880.06;4991420;28;20500;-71
2022/05/07 06:30:05;;;;;;;8.90;7.38;;;;;;;16.18;100.00;100834.09;5009647;28;20037;-69
2022/05/07 06:32:35;;;;;;;12.00;7.85;;;;;;;15.70;100.00;100900.81;5024704;28;20699;-68
2022/05/07 06:35:03;;;;;;;9.57;7.57;;;;;;;16.48;100.00;100895.41;5020007;28;20095;-67
2022/05/07 06:37:30;;;;;;;9.07;7.93;;;;;;;17.11;100.00;100855.28;5029272;28;20040;-71
2022/05/07 06:39:56;;;;;;;10.40;7.30;;;;;;;15.97;100.00;100804.94;5029359;28;20047;-70
2022/05/07 06:42:21;;;;;;;9.40;7.10;;;;;;;15.58;100.00;100879.00;5011770;28;20041;-71
2022/05/07 06:44:47;;;;;;;10.32;7.28;;;;;;;16.75;100.00;100836.19;5029689;28;20400;-71
2022/05/07 06:47:12;;;;;;;9.95;7.43;;;;;;;16.23;100.00;100847.59;5028705;28;20029;-70
2022/05/07 06:49:38;;;;;;;8.70;6.90;;;;;;;16.44;100.00;100888.69;5010342;28;20029;-71
2022/05/07 06:52:04;;;;;;;10.70;7.25;;;;;;;17.40;100.00;100882.34;5010822;28;20038;-72
2022/05/07 06:54:29;;;;;;;9.10;6.88;;;;;;;16.73;100.00;100867.09;5010875;28;20502;-69
2022/05/07 06:56:54;;;;;;;10.00;6.70;;;;;;;17.34;100.00;100850.88;5010794;28;20633;-69
2022/05/07 06:59:21;;;;;;;11.82;6.50;;;;;;;17.43;100.00;100856.53;5027963;28;20814;-68
2022/05/07 07:01:47;;;;;;;8.80;6.60;;;;;;;17.50;100.00;100871.66;5027622;28;20038;-70
2022/05/07 07:04:13;;;;;;;7.95;6.22;;;;;;;17.64;100.00;100884.78;5028739;28;20033;-70
2022/05/07 07:06:38;;;;;;;11.15;6.30;;;;;;;18.42;100.00;100864.16;5010677;28;20404;-70
2022/05/07 07:09:04;;;;;;;7.57;6.75;;;;;;;18.24;100.00;100877.88;5028214;28;20570;-70
2022/05/07 07:11:31;;;;;;;9.68;6.07;;;;;;;18.15;98.63;100846.47;5028144;28;20176;-69
2022/05/07 07:13:56;;;;;;;7.97;5.80;;;;;;;18.38;100.00;100845.41;5027951;28;20107;-72
2022/05/07 07:16:22;;;;;;;7.95;5.88;;;;;;;18.52;98.88;100892.00;5010106;28;20033;-68
2022/05/07 07:18:48;;;;;;;10.52;6.10;;;;;;;18.37;98.14;100841.19;5028043;28;20061;-71
2022/05/07 07:21:13;;;;;;;7.70;6.07;;;;;;;17.77;87.65;100856.78;5028258;28;20119;-68
2022/05/07 07:23:39;;;;;;;8.18;5.40;;;;;;;18.64;79.79;100896.59;5032219;28;20021;-69
2022/05/07 07:26:04;;;;;;;8.23;5.45;;;;;;;18.36;76.73;100890.19;5047865;28;20056;-69
2022/05/07 07:28:31;;;;;;;7.15;4.93;;;;;;;18.86;76.26;100886.97;5030000;28;20413;-69
2022/05/07 07:30:57;;;;;;;9.27;5.30;;;;;;;18.01;68.32;100884.03;5027709;28;20036;-72
2022/05/07 07:33:23;;;;;;;8.30;5.43;;;;;;;18.57;67.50;100894.38;5027155;28;20495;-69
2022/05/07 07:35:48;;;;;;;10.88;5.53;;;;;;;18.22;67.06;100877.94;5027310;28;20068;-69
2022/05/07 07:38:14;;;;;;;11.35;6.03;;;;;;;17.78;67.55;100884.19;5027612;28;20482;-69
2022/05/07 07:40:41;;;;;;;8.57;5.18;;;;;;;19.17;66.16;100885.50;5027298;28;20677;-69
2022/05/07 07:43:06;;;;;;;11.98;5.63;;;;;;;20.02;64.48;100867.38;5027411;28;20068;-70
2022/05/07 07:48:15;;;;;;;9.38;5.90;;;;;;;18.51;68.02;100845.72;5027026;28;20147;-69
2022/05/07 07:50:41;;;;;;;10.23;4.93;;;;;;;18.49;62.28;100817.47;5027581;28;20052;-69
2022/05/07 07:53:11;;;;;;;9.38;3.88;;;;;;;17.87;58.88;100860.63;5027178;28;20033;-70
2022/05/07 07:55:38;;;;;;;8.23;4.32;;;;;;;19.26;56.91;100882.44;5026542;28;20395;-69
2022/05/07 07:58:05;;;;;;;11.00;5.03;;;;;;;19.80;57.87;100892.63;5008488;28;20032;-68
2022/05/07 08:00:32;;;;;;;16.67;6.35;;;;;;;19.20;59.98;100849.22;5007838;28;20106;-70
2022/05/07 08:03:05;;;;;;;8.65;5.53;;;;;;;19.68;57.23;100849.38;5027960;28;20065;-70
2022/05/07 08:05:33;;;;;;;8.85;6.05;;;;;;;18.79;57.11;100825.50;5023367;28;20021;-71
2022/05/07 08:13:37;;;;;;;9.25;5.93;;;;;;;19.26;54.83;100885.03;5010810;28;20040;-70
